sensor_id;sensor_type;location;lat;lon;timestamp;temperature;humidity
32187;DHT22;18686;53.084;8.872;2023-05-10T00:01:38;15.80;60.40
32187;DHT22;18686;53.084;8.872;2023-05-10T00:04:07;15.80;60.90
32187;DHT22;18686;53.084;8.872;2023-05-10T00:06:35;15.80;60.40
32187;DHT22;18686;53.084;8.872;2023-05-10T00:09:04;15.80;60.20
32187;DHT22;18686;53.084;8.872;2023-05-10T00:11:33;15.80;59.90
32187;DHT22;18686;53.084;8.872;2023-05-10T00:14:01;15.80;60.70
32187;DHT22;18686;53.084;8.872;2023-05-10T00:16:29;15.80;60.70
32187;DHT22;18686;53.084;8.872;2023-05-10T00:18:57;15.70;61.50
32187;DHT22;18686;53.084;8.872;2023-05-10T00:21:25;15.80;61.90
32187;DHT22;18686;53.084;8.872;2023-05-10T00:23:55;15.70;62.00
32187;DHT22;18686;53.084;8.872;2023-05-10T00:26:24;15.70;61.80
32187;DHT22;18686;53.084;8.872;2023-05-10T00:28:54;15.70;61.80
32187;DHT22;18686;53.084;8.872;2023-05-10T00:31:23;15.70;61.10
32187;DHT22;18686;53.084;8.872;2023-05-10T00:33:51;15.60;59.80
32187;DHT22;18686;53.084;8.872;2023-05-10T00:36:19;15.60;59.90
32187;DHT22;18686;53.084;8.872;2023-05-10T00:38:48;15.60;59.70
32187;DHT22;18686;53.084;8.872;2023-05-10T00:41:17;15.60;59.50
32187;DHT22;18686;53.084;8.872;2023-05-10T00:43:47;15.50;59.00
32187;DHT22;18686;53.084;8.872;2023-05-10T00:46:16;15.50;59.30
32187;DHT22;18686;53.084;8.872;2023-05-10T00:48:44;15.50;58.50
32187;DHT22;18686;53.084;8.872;2023-05-10T00:51:13;15.50;59.00
32187;DHT22;18686;53.084;8.872;2023-05-10T00:53:41;15.50;59.00
32187;DHT22;18686;53.084;8.872;2023-05-10T00:56:10;15.40;58.50
32187;DHT22;18686;53.084;8.872;2023-05-10T00:58:39;15.40;58.90
32187;DHT22;18686;53.084;8.872;2023-05-10T01:01:09;15.40;58.60
32187;DHT22;18686;53.084;8.872;2023-05-10T01:03:39;15.30;59.00
32187;DHT22;18686;53.084;8.872;2023-05-10T01:06:08;15.30;58.60
32187;DHT22;18686;53.084;8.872;2023-05-10T01:08:38;15.30;58.40
32187;DHT22;18686;53.084;8.872;2023-05-10T01:11:06;15.20;58.80
32187;DHT22;18686;53.084;8.872;2023-05-10T01:13:36;15.20;58.80
32187;DHT22;18686;53.084;8.872;2023-05-10T01:16:06;15.20;59.40
32187;DHT22;18686;53.084;8.872;2023-05-10T01:18:38;15.10;59.50
32187;DHT22;18686;53.084;8.872;2023-05-10T01:21:23;15.10;59.30
32187;DHT22;18686;53.084;8.872;2023-05-10T01:24:25;15.10;59.50
32187;DHT22;18686;53.084;8.872;2023-05-10T01:30:29;15.00;59.80
32187;DHT22;18686;53.084;8.872;2023-05-10T01:33:07;15.00;59.50
32187;DHT22;18686;53.084;8.872;2023-05-10T01:35:43;15.00;59.80
32187;DHT22;18686;53.084;8.872;2023-05-10T01:38:20;15.00;59.90
32187;DHT22;18686;53.084;8.872;2023-05-10T01:40:58;14.90;60.20
32187;DHT22;18686;53.084;8.872;2023-05-10T01:43:35;14.90;60.20
32187;DHT22;18686;53.084;8.872;2023-05-10T01:46:07;14.90;59.80
32187;DHT22;18686;53.084;8.872;2023-05-10T01:48:44;14.90;60.60
32187;DHT22;18686;53.084;8.872;2023-05-10T01:51:19;14.90;60.60
32187;DHT22;18686;53.084;8.872;2023-05-10T01:53:48;14.90;60.00
32187;DHT22;18686;53.084;8.872;2023-05-10T01:56:20;14.90;60.20
32187;DHT22;18686;53.084;8.872;2023-05-10T01:58:52;14.90;60.60
32187;DHT22;18686;53.084;8.872;2023-05-10T02:01:21;14.80;60.60
32187;DHT22;18686;53.084;8.872;2023-05-10T02:03:52;14.80;61.20
32187;DHT22;18686;53.084;8.872;2023-05-10T02:06:22;14.80;60.80
32187;DHT22;18686;53.084;8.872;2023-05-10T02:08:52;14.80;60.80
32187;DHT22;18686;53.084;8.872;2023-05-10T02:11:21;14.80;60.90
32187;DHT22;18686;53.084;8.872;2023-05-10T02:13:51;14.70;61.60
32187;DHT22;18686;53.084;8.872;2023-05-10T02:16:27;14.80;61.50
32187;DHT22;18686;53.084;8.872;2023-05-10T02:19:01;14.70;61.30
32187;DHT22;18686;53.084;8.872;2023-05-10T02:21:30;14.70;62.00
32187;DHT22;18686;53.084;8.872;2023-05-10T02:24:02;14.70;61.90
32187;DHT22;18686;53.084;8.872;2023-05-10T02:26:32;14.70;62.00
32187;DHT22;18686;53.084;8.872;2023-05-10T02:29:03;14.70;62.50
32187;DHT22;18686;53.084;8.872;2023-05-10T02:31:32;14.70;62.80
32187;DHT22;18686;53.084;8.872;2023-05-10T02:34:02;14.70;62.80
32187;DHT22;18686;53.084;8.872;2023-05-10T02:36:32;14.70;62.80
32187;DHT22;18686;53.084;8.872;2023-05-10T02:39:01;14.70;63.00
32187;DHT22;18686;53.084;8.872;2023-05-10T02:41:31;14.60;62.90
32187;DHT22;18686;53.084;8.872;2023-05-10T02:44:01;14.60;63.00
32187;DHT22;18686;53.084;8.872;2023-05-10T02:46:30;14.60;63.20
32187;DHT22;18686;53.084;8.872;2023-05-10T02:48:59;14.60;63.20
32187;DHT22;18686;53.084;8.872;2023-05-10T02:51:31;14.60;63.60
32187;DHT22;18686;53.084;8.872;2023-05-10T02:54:02;14.60;63.90
32187;DHT22;18686;53.084;8.872;2023-05-10T02:56:34;14.60;64.30
32187;DHT22;18686;53.084;8.872;2023-05-10T02:59:03;14.50;65.00
32187;DHT22;18686;53.084;8.872;2023-05-10T03:01:31;14.50;65.30
32187;DHT22;18686;53.084;8.872;2023-05-10T03:04:00;14.50;65.10
32187;DHT22;18686;53.084;8.872;2023-05-10T03:06:29;14.50;65.80
32187;DHT22;18686;53.084;8.872;2023-05-10T03:08:58;14.50;65.60
32187;DHT22;18686;53.084;8.872;2023-05-10T03:11:35;14.40;65.90
32187;DHT22;18686;53.084;8.872;2023-05-10T03:14:13;14.40;66.20
32187;DHT22;18686;53.084;8.872;2023-05-10T03:16:46;14.40;66.50
32187;DHT22;18686;53.084;8.872;2023-05-10T03:19:19;14.40;67.00
32187;DHT22;18686;53.084;8.872;2023-05-10T03:21:53;14.30;66.90
32187;DHT22;18686;53.084;8.872;2023-05-10T03:24:23;14.30;67.20
32187;DHT22;18686;53.084;8.872;2023-05-10T03:26:59;14.30;67.50
32187;DHT22;18686;53.084;8.872;2023-05-10T03:29:30;14.30;67.50
32187;DHT22;18686;53.084;8.872;2023-05-10T03:31:59;14.30;67.70
32187;DHT22;18686;53.084;8.872;2023-05-10T03:34:30;14.30;68.30
32187;DHT22;18686;53.084;8.872;2023-05-10T03:36:59;14.20;68.40
32187;DHT22;18686;53.084;8.872;2023-05-10T03:39:30;14.20;68.70
32187;DHT22;18686;53.084;8.872;2023-05-10T03:42:00;14.20;68.90
32187;DHT22;18686;53.084;8.872;2023-05-10T03:44:29;14.20;69.40
32187;DHT22;18686;53.084;8.872;2023-05-10T03:46:58;14.20;69.90
32187;DHT22;18686;53.084;8.872;2023-05-10T03:49:26;14.20;71.00
32187;DHT22;18686;53.084;8.872;2023-05-10T03:51:55;14.20;71.60
32187;DHT22;18686;53.084;8.872;2023-05-10T03:54:24;14.20;72.10
32187;DHT22;18686;53.084;8.872;2023-05-10T03:56:52;14.10;73.00
32187;DHT22;18686;53.084;8.872;2023-05-10T03:59:21;14.10;73.90
32187;DHT22;18686;53.084;8.872;2023-05-10T04:01:51;14.10;75.20
32187;DHT22;18686;53.084;8.872;2023-05-10T04:04:19;14.00;76.70
32187;DHT22;18686;53.084;8.872;2023-05-10T04:06:49;14.00;78.50
32187;DHT22;18686;53.084;8.872;2023-05-10T04:09:17;13.90;81.50
32187;DHT22;18686;53.084;8.872;2023-05-10T04:11:46;13.80;82.50
32187;DHT22;18686;53.084;8.872;2023-05-10T04:14:15;13.80;85.00
32187;DHT22;18686;53.084;8.872;2023-05-10T04:16:43;13.80;86.90
32187;DHT22;18686;53.084;8.872;2023-05-10T04:19:11;13.70;88.60
32187;DHT22;18686;53.084;8.872;2023-05-10T04:21:39;13.60;90.20
32187;DHT22;18686;53.084;8.872;2023-05-10T04:24:08;13.60;90.20
32187;DHT22;18686;53.084;8.872;2023-05-10T04:26:36;13.50;90.50
32187;DHT22;18686;53.084;8.872;2023-05-10T04:29:05;13.50;91.20
32187;DHT22;18686;53.084;8.872;2023-05-10T04:31:34;13.50;91.50
32187;DHT22;18686;53.084;8.872;2023-05-10T04:34:03;13.40;91.70
32187;DHT22;18686;53.084;8.872;2023-05-10T04:36:31;13.40;92.60
32187;DHT22;18686;53.084;8.872;2023-05-10T04:39:02;13.40;92.40
32187;DHT22;18686;53.084;8.872;2023-05-10T04:41:30;13.30;93.60
32187;DHT22;18686;53.084;8.872;2023-05-10T04:43:58;13.30;95.80
32187;DHT22;18686;53.084;8.872;2023-05-10T04:46:28;13.20;95.40
32187;DHT22;18686;53.084;8.872;2023-05-10T04:48:56;13.20;97.10
32187;DHT22;18686;53.084;8.872;2023-05-10T04:51:24;13.10;98.20
32187;DHT22;18686;53.084;8.872;2023-05-10T04:53:53;13.00;98.80
32187;DHT22;18686;53.084;8.872;2023-05-10T04:56:32;12.90;99.90
32187;DHT22;18686;53.084;8.872;2023-05-10T04:59:00;12.80;99.90
32187;DHT22;18686;53.084;8.872;2023-05-10T05:01:30;12.70;99.90
32187;DHT22;18686;53.084;8.872;2023-05-10T05:03:59;12.60;99.90
32187;DHT22;18686;53.084;8.872;2023-05-10T05:06:27;12.60;99.90
32187;DHT22;18686;53.084;8.872;2023-05-10T05:08:55;12.60;99.90
32187;DHT22;18686;53.084;8.872;2023-05-10T05:11:24;12.50;99.90
32187;DHT22;18686;53.084;8.872;2023-05-10T05:13:53;12.60;99.90
32187;DHT22;18686;53.084;8.872;2023-05-10T05:16:21;12.50;99.90
32187;DHT22;18686;53.084;8.872;2023-05-10T05:18:51;12.50;99.90
32187;DHT22;18686;53.084;8.872;2023-05-10T05:21:19;12.60;99.90
32187;DHT22;18686;53.084;8.872;2023-05-10T05:23:48;12.70;99.90
32187;DHT22;18686;53.084;8.872;2023-05-10T05:26:17;12.70;99.90
32187;DHT22;18686;53.084;8.872;2023-05-10T05:28:45;12.60;99.90
32187;DHT22;18686;53.084;8.872;2023-05-10T05:31:15;12.60;99.90
32187;DHT22;18686;53.084;8.872;2023-05-10T05:33:44;12.50;99.90
32187;DHT22;18686;53.084;8.872;2023-05-10T05:36:14;12.50;99.90
32187;DHT22;18686;53.084;8.872;2023-05-10T05:38:42;12.50;99.90
32187;DHT22;18686;53.084;8.872;2023-05-10T05:41:10;12.50;99.90
32187;DHT22;18686;53.084;8.872;2023-05-10T05:43:39;12.50;99.90
32187;DHT22;18686;53.084;8.872;2023-05-10T05:46:07;12.50;99.90
32187;DHT22;18686;53.084;8.872;2023-05-10T05:48:36;12.50;99.90
32187;DHT22;18686;53.084;8.872;2023-05-10T05:51:04;12.50;99.90
32187;DHT22;18686;53.084;8.872;2023-05-10T05:53:34;12.50;99.90
32187;DHT22;18686;53.084;8.872;2023-05-10T05:56:03;12.50;99.90
32187;DHT22;18686;53.084;8.872;2023-05-10T05:58:31;12.50;99.90
32187;DHT22;18686;53.084;8.872;2023-05-10T06:01:00;12.50;99.90
32187;DHT22;18686;53.084;8.872;2023-05-10T06:03:28;12.50;99.90
32187;DHT22;18686;53.084;8.872;2023-05-10T06:05:57;12.50;99.90
32187;DHT22;18686;53.084;8.872;2023-05-10T06:08:25;12.40;99.90
32187;DHT22;18686;53.084;8.872;2023-05-10T06:10:54;12.40;99.90
32187;DHT22;18686;53.084;8.872;2023-05-10T06:13:23;12.30;99.90
32187;DHT22;18686;53.084;8.872;2023-05-10T06:15:51;12.20;99.90
32187;DHT22;18686;53.084;8.872;2023-05-10T06:18:19;12.10;99.90
32187;DHT22;18686;53.084;8.872;2023-05-10T06:20:47;12.10;99.90
32187;DHT22;18686;53.084;8.872;2023-05-10T06:23:16;12.00;99.90
32187;DHT22;18686;53.084;8.872;2023-05-10T06:25:45;11.90;99.90
32187;DHT22;18686;53.084;8.872;2023-05-10T06:28:14;11.80;99.90
32187;DHT22;18686;53.084;8.872;2023-05-10T06:30:42;11.70;99.90
32187;DHT22;18686;53.084;8.872;2023-05-10T06:33:11;11.70;99.90
32187;DHT22;18686;53.084;8.872;2023-05-10T06:35:39;11.70;99.90
32187;DHT22;18686;53.084;8.872;2023-05-10T06:38:07;11.70;99.90
32187;DHT22;18686;53.084;8.872;2023-05-10T06:40:36;11.70;99.90
32187;DHT22;18686;53.084;8.872;2023-05-10T06:43:06;11.80;99.90
32187;DHT22;18686;53.084;8.872;2023-05-10T06:45:36;11.80;99.90
32187;DHT22;18686;53.084;8.872;2023-05-10T06:48:04;11.90;99.90
32187;DHT22;18686;53.084;8.872;2023-05-10T06:50:32;11.90;99.90
32187;DHT22;18686;53.084;8.872;2023-05-10T06:53:01;11.90;99.90
32187;DHT22;18686;53.084;8.872;2023-05-10T06:55:29;11.90;99.90
32187;DHT22;18686;53.084;8.872;2023-05-10T06:57:57;11.90;99.90
32187;DHT22;18686;53.084;8.872;2023-05-10T07:00:26;11.90;99.90
32187;DHT22;18686;53.084;8.872;2023-05-10T07:02:55;11.90;99.90
32187;DHT22;18686;53.084;8.872;2023-05-10T07:05:23;11.90;99.90
32187;DHT22;18686;53.084;8.872;2023-05-10T07:07:54;11.90;99.90
32187;DHT22;18686;53.084;8.872;2023-05-10T07:10:25;11.90;99.90
32187;DHT22;18686;53.084;8.872;2023-05-10T07:12:53;12.00;99.90
32187;DHT22;18686;53.084;8.872;2023-05-10T07:15:22;12.10;99.90
32187;DHT22;18686;53.084;8.872;2023-05-10T07:17:50;12.10;99.90
32187;DHT22;18686;53.084;8.872;2023-05-10T07:20:20;12.20;99.90
32187;DHT22;18686;53.084;8.872;2023-05-10T07:22:48;12.20;99.90
32187;DHT22;18686;53.084;8.872;2023-05-10T07:25:16;12.20;99.90
32187;DHT22;18686;53.084;8.872;2023-05-10T07:27:44;12.30;99.90
32187;DHT22;18686;53.084;8.872;2023-05-10T07:30:15;12.30;99.90
32187;DHT22;18686;53.084;8.872;2023-05-10T07:32:43;12.40;99.90
32187;DHT22;18686;53.084;8.872;2023-05-10T07:35:11;12.40;99.90
32187;DHT22;18686;53.084;8.872;2023-05-10T07:37:41;12.40;99.90
32187;DHT22;18686;53.084;8.872;2023-05-10T07:40:10;12.40;99.90
32187;DHT22;18686;53.084;8.872;2023-05-10T07:42:38;12.50;99.90
32187;DHT22;18686;53.084;8.872;2023-05-10T07:45:08;12.70;99.90
32187;DHT22;18686;53.084;8.872;2023-05-10T07:47:36;12.80;99.90
32187;DHT22;18686;53.084;8.872;2023-05-10T07:50:06;13.00;99.90
32187;DHT22;18686;53.084;8.872;2023-05-10T07:52:34;13.10;99.90
32187;DHT22;18686;53.084;8.872;2023-05-10T07:55:04;13.20;99.90
32187;DHT22;18686;53.084;8.872;2023-05-10T07:57:34;13.20;99.90
32187;DHT22;18686;53.084;8.872;2023-05-10T08:00:03;13.20;99.90
32187;DHT22;18686;53.084;8.872;2023-05-10T08:02:39;13.20;99.90
32187;DHT22;18686;53.084;8.872;2023-05-10T08:05:07;13.20;99.90
32187;DHT22;18686;53.084;8.872;2023-05-10T08:07:36;13.20;99.90
32187;DHT22;18686;53.084;8.872;2023-05-10T08:10:07;13.20;99.90
32187;DHT22;18686;53.084;8.872;2023-05-10T08:12:36;13.30;99.90
32187;DHT22;18686;53.084;8.872;2023-05-10T08:15:05;13.50;99.90
32187;DHT22;18686;53.084;8.872;2023-05-10T08:17:33;13.70;99.90
32187;DHT22;18686;53.084;8.872;2023-05-10T08:20:02;13.90;99.90
32187;DHT22;18686;53.084;8.872;2023-05-10T08:22:30;14.10;99.90
32187;DHT22;18686;53.084;8.872;2023-05-10T08:24:58;14.30;99.90
32187;DHT22;18686;53.084;8.872;2023-05-10T08:27:28;14.30;99.90
32187;DHT22;18686;53.084;8.872;2023-05-10T08:29:56;14.30;99.90
32187;DHT22;18686;53.084;8.872;2023-05-10T08:32:24;14.40;99.90
32187;DHT22;18686;53.084;8.872;2023-05-10T08:34:52;14.50;99.90
32187;DHT22;18686;53.084;8.872;2023-05-10T08:37:20;14.60;99.90
32187;DHT22;18686;53.084;8.872;2023-05-10T08:39:48;14.90;99.90
32187;DHT22;18686;53.084;8.872;2023-05-10T08:42:19;15.00;99.90
32187;DHT22;18686;53.084;8.872;2023-05-10T08:44:52;15.20;99.90
32187;DHT22;18686;53.084;8.872;2023-05-10T08:47:21;15.30;99.90
32187;DHT22;18686;53.084;8.872;2023-05-10T08:49:50;15.40;99.90
32187;DHT22;18686;53.084;8.872;2023-05-10T08:52:19;15.60;99.90
32187;DHT22;18686;53.084;8.872;2023-05-10T08:54:57;15.70;99.90
32187;DHT22;18686;53.084;8.872;2023-05-10T08:57:25;15.70;99.90
32187;DHT22;18686;53.084;8.872;2023-05-10T08:59:53;15.80;99.90
32187;DHT22;18686;53.084;8.872;2023-05-10T09:02:23;15.70;99.90
32187;DHT22;18686;53.084;8.872;2023-05-10T09:04:52;15.70;99.90
32187;DHT22;18686;53.084;8.872;2023-05-10T09:07:20;15.90;99.90
32187;DHT22;18686;53.084;8.872;2023-05-10T09:09:49;16.10;99.90
32187;DHT22;18686;53.084;8.872;2023-05-10T09:12:18;16.30;99.90
32187;DHT22;18686;53.084;8.872;2023-05-10T09:14:47;16.60;99.90
32187;DHT22;18686;53.084;8.872;2023-05-10T09:17:16;16.80;99.90
32187;DHT22;18686;53.084;8.872;2023-05-10T09:19:45;17.10;99.90
32187;DHT22;18686;53.084;8.872;2023-05-10T09:22:13;17.30;99.90
32187;DHT22;18686;53.084;8.872;2023-05-10T09:24:43;17.50;99.90
32187;DHT22;18686;53.084;8.872;2023-05-10T09:27:12;17.60;99.90
32187;DHT22;18686;53.084;8.872;2023-05-10T09:29:42;17.80;99.90
32187;DHT22;18686;53.084;8.872;2023-05-10T09:32:10;18.00;99.90
32187;DHT22;18686;53.084;8.872;2023-05-10T09:34:40;18.20;99.90
32187;DHT22;18686;53.084;8.872;2023-05-10T09:37:09;18.40;99.90
32187;DHT22;18686;53.084;8.872;2023-05-10T09:39:37;18.70;99.90
32187;DHT22;18686;53.084;8.872;2023-05-10T09:42:07;18.30;99.90
32187;DHT22;18686;53.084;8.872;2023-05-10T09:44:36;17.90;99.90
32187;DHT22;18686;53.084;8.872;2023-05-10T09:47:06;17.70;99.90
32187;DHT22;18686;53.084;8.872;2023-05-10T09:49:34;17.50;99.90
32187;DHT22;18686;53.084;8.872;2023-05-10T09:52:03;17.50;99.90
32187;DHT22;18686;53.084;8.872;2023-05-10T09:54:32;17.70;99.90
32187;DHT22;18686;53.084;8.872;2023-05-10T09:57:01;17.90;99.90
32187;DHT22;18686;53.084;8.872;2023-05-10T09:59:32;17.90;99.90
32187;DHT22;18686;53.084;8.872;2023-05-10T10:02:01;18.00;99.90
32187;DHT22;18686;53.084;8.872;2023-05-10T10:04:32;18.20;99.90
32187;DHT22;18686;53.084;8.872;2023-05-10T10:07:01;18.30;99.90
32187;DHT22;18686;53.084;8.872;2023-05-10T10:09:31;18.40;99.90
32187;DHT22;18686;53.084;8.872;2023-05-10T10:11:59;18.40;99.90
32187;DHT22;18686;53.084;8.872;2023-05-10T10:14:28;18.60;99.90
32187;DHT22;18686;53.084;8.872;2023-05-10T10:16:57;19.20;99.90
32187;DHT22;18686;53.084;8.872;2023-05-10T10:19:36;19.80;99.90
32187;DHT22;18686;53.084;8.872;2023-05-10T10:22:05;20.50;99.90
32187;DHT22;18686;53.084;8.872;2023-05-10T10:24:33;20.70;99.90
32187;DHT22;18686;53.084;8.872;2023-05-10T10:27:08;20.60;99.90
32187;DHT22;18686;53.084;8.872;2023-05-10T10:29:45;20.10;99.90
32187;DHT22;18686;53.084;8.872;2023-05-10T10:32:24;19.60;99.90
32187;DHT22;18686;53.084;8.872;2023-05-10T10:34:55;19.10;99.90
32187;DHT22;18686;53.084;8.872;2023-05-10T10:37:24;18.60;99.90
32187;DHT22;18686;53.084;8.872;2023-05-10T10:40:26;18.40;99.90
32187;DHT22;18686;53.084;8.872;2023-05-10T10:43:20;18.30;99.90
32187;DHT22;18686;53.084;8.872;2023-05-10T10:46:00;18.30;99.90
32187;DHT22;18686;53.084;8.872;2023-05-10T10:48:36;18.50;99.90
32187;DHT22;18686;53.084;8.872;2023-05-10T10:51:06;18.90;99.90
32187;DHT22;18686;53.084;8.872;2023-05-10T10:53:37;19.50;99.90
32187;DHT22;18686;53.084;8.872;2023-05-10T10:56:08;20.50;99.90
32187;DHT22;18686;53.084;8.872;2023-05-10T10:58:37;21.80;99.90
32187;DHT22;18686;53.084;8.872;2023-05-10T11:01:11;22.60;99.90
32187;DHT22;18686;53.084;8.872;2023-05-10T11:03:40;23.00;99.90
32187;DHT22;18686;53.084;8.872;2023-05-10T11:06:09;23.10;99.90
32187;DHT22;18686;53.084;8.872;2023-05-10T11:08:42;23.20;99.90
32187;DHT22;18686;53.084;8.872;2023-05-10T11:11:15;23.50;99.90
32187;DHT22;18686;53.084;8.872;2023-05-10T11:13:44;24.00;99.90
32187;DHT22;18686;53.084;8.872;2023-05-10T11:16:18;24.20;97.50
32187;DHT22;18686;53.084;8.872;2023-05-10T11:18:57;24.10;98.20
32187;DHT22;18686;53.084;8.872;2023-05-10T11:21:28;23.90;95.40
32187;DHT22;18686;53.084;8.872;2023-05-10T11:23:57;23.50;93.40
32187;DHT22;18686;53.084;8.872;2023-05-10T11:26:30;23.30;91.50
32187;DHT22;18686;53.084;8.872;2023-05-10T11:28:58;23.00;93.30
32187;DHT22;18686;53.084;8.872;2023-05-10T11:31:28;22.90;92.20
32187;DHT22;18686;53.084;8.872;2023-05-10T11:33:57;22.70;92.10
32187;DHT22;18686;53.084;8.872;2023-05-10T11:36:29;22.60;92.60
32187;DHT22;18686;53.084;8.872;2023-05-10T11:38:57;22.40;93.60
32187;DHT22;18686;53.084;8.872;2023-05-10T11:41:28;22.50;91.40
32187;DHT22;18686;53.084;8.872;2023-05-10T11:43:57;23.10;91.50
32187;DHT22;18686;53.084;8.872;2023-05-10T11:46:27;24.30;89.50
32187;DHT22;18686;53.084;8.872;2023-05-10T11:48:58;25.80;78.80
32187;DHT22;18686;53.084;8.872;2023-05-10T11:51:33;27.00;72.90
32187;DHT22;18686;53.084;8.872;2023-05-10T11:54:06;28.40;65.30
32187;DHT22;18686;53.084;8.872;2023-05-10T11:56:35;28.90;57.30
32187;DHT22;18686;53.084;8.872;2023-05-10T11:59:03;28.70;54.00
32187;DHT22;18686;53.084;8.872;2023-05-10T12:01:32;27.70;53.70
32187;DHT22;18686;53.084;8.872;2023-05-10T12:04:01;26.50;56.10
32187;DHT22;18686;53.084;8.872;2023-05-10T12:06:32;25.70;60.10
32187;DHT22;18686;53.084;8.872;2023-05-10T12:09:06;24.80;62.80
32187;DHT22;18686;53.084;8.872;2023-05-10T12:11:37;23.90;67.60
32187;DHT22;18686;53.084;8.872;2023-05-10T12:14:09;22.90;74.90
32187;DHT22;18686;53.084;8.872;2023-05-10T12:16:37;22.00;83.20
32187;DHT22;18686;53.084;8.872;2023-05-10T12:19:06;21.20;91.50
32187;DHT22;18686;53.084;8.872;2023-05-10T12:21:36;20.60;95.00
32187;DHT22;18686;53.084;8.872;2023-05-10T12:24:05;20.20;97.80
32187;DHT22;18686;53.084;8.872;2023-05-10T12:26:35;20.20;99.90
32187;DHT22;18686;53.084;8.872;2023-05-10T12:29:13;20.40;99.90
32187;DHT22;18686;53.084;8.872;2023-05-10T12:31:52;21.30;99.90
32187;DHT22;18686;53.084;8.872;2023-05-10T12:34:25;21.60;99.90
32187;DHT22;18686;53.084;8.872;2023-05-10T12:36:55;21.50;97.80
32187;DHT22;18686;53.084;8.872;2023-05-10T12:39:23;21.10;97.80
32187;DHT22;18686;53.084;8.872;2023-05-10T12:41:52;20.60;98.60
32187;DHT22;18686;53.084;8.872;2023-05-10T12:44:20;20.20;99.60
32187;DHT22;18686;53.084;8.872;2023-05-10T12:46:49;19.70;99.90
32187;DHT22;18686;53.084;8.872;2023-05-10T12:49:17;19.50;99.90
32187;DHT22;18686;53.084;8.872;2023-05-10T12:51:46;19.60;99.90
32187;DHT22;18686;53.084;8.872;2023-05-10T12:54:16;19.70;99.90
32187;DHT22;18686;53.084;8.872;2023-05-10T12:56:44;19.80;99.90
32187;DHT22;18686;53.084;8.872;2023-05-10T12:59:12;19.80;99.90
32187;DHT22;18686;53.084;8.872;2023-05-10T13:01:40;19.60;99.90
32187;DHT22;18686;53.084;8.872;2023-05-10T13:04:09;19.20;99.90
32187;DHT22;18686;53.084;8.872;2023-05-10T13:06:37;18.80;99.90
32187;DHT22;18686;53.084;8.872;2023-05-10T13:09:05;18.60;99.90
32187;DHT22;18686;53.084;8.872;2023-05-10T13:11:35;18.50;99.90
32187;DHT22;18686;53.084;8.872;2023-05-10T13:14:03;18.90;99.90
32187;DHT22;18686;53.084;8.872;2023-05-10T13:16:32;19.70;99.90
32187;DHT22;18686;53.084;8.872;2023-05-10T13:19:00;20.60;99.90
32187;DHT22;18686;53.084;8.872;2023-05-10T13:21:28;21.30;99.90
32187;DHT22;18686;53.084;8.872;2023-05-10T13:23:57;21.80;97.40
32187;DHT22;18686;53.084;8.872;2023-05-10T13:26:25;21.70;96.70
32187;DHT22;18686;53.084;8.872;2023-05-10T13:28:55;21.40;96.30
32187;DHT22;18686;53.084;8.872;2023-05-10T13:31:23;21.10;95.70
32187;DHT22;18686;53.084;8.872;2023-05-10T13:33:51;20.80;96.50
32187;DHT22;18686;53.084;8.872;2023-05-10T13:36:20;20.80;96.60
32187;DHT22;18686;53.084;8.872;2023-05-10T13:38:48;21.20;95.90
32187;DHT22;18686;53.084;8.872;2023-05-10T13:41:16;21.90;96.10
32187;DHT22;18686;53.084;8.872;2023-05-10T13:43:45;22.50;93.80
32187;DHT22;18686;53.084;8.872;2023-05-10T13:46:16;22.50;92.10
32187;DHT22;18686;53.084;8.872;2023-05-10T13:48:46;22.30;91.50
32187;DHT22;18686;53.084;8.872;2023-05-10T13:51:14;21.90;91.70
32187;DHT22;18686;53.084;8.872;2023-05-10T13:53:42;21.50;92.00
32187;DHT22;18686;53.084;8.872;2023-05-10T13:56:10;21.20;93.10
32187;DHT22;18686;53.084;8.872;2023-05-10T13:58:39;20.90;93.40
32187;DHT22;18686;53.084;8.872;2023-05-10T14:01:07;20.60;94.10
32187;DHT22;18686;53.084;8.872;2023-05-10T14:03:36;20.50;94.10
32187;DHT22;18686;53.084;8.872;2023-05-10T14:06:05;20.50;94.80
32187;DHT22;18686;53.084;8.872;2023-05-10T14:08:35;20.60;94.70
32187;DHT22;18686;53.084;8.872;2023-05-10T14:11:03;20.80;94.30
32187;DHT22;18686;53.084;8.872;2023-05-10T14:13:31;20.90;93.40
32187;DHT22;18686;53.084;8.872;2023-05-10T14:15:59;21.00;93.20
32187;DHT22;18686;53.084;8.872;2023-05-10T14:18:28;21.00;93.30
32187;DHT22;18686;53.084;8.872;2023-05-10T14:20:58;21.00;93.10
32187;DHT22;18686;53.084;8.872;2023-05-10T14:23:26;21.00;92.90
32187;DHT22;18686;53.084;8.872;2023-05-10T14:25:55;21.00;93.60
32187;DHT22;18686;53.084;8.872;2023-05-10T14:28:24;21.10;93.00
32187;DHT22;18686;53.084;8.872;2023-05-10T14:30:52;21.20;93.00
32187;DHT22;18686;53.084;8.872;2023-05-10T14:33:20;21.40;92.40
32187;DHT22;18686;53.084;8.872;2023-05-10T14:35:49;21.60;92.40
32187;DHT22;18686;53.084;8.872;2023-05-10T14:38:18;22.10;92.50
32187;DHT22;18686;53.084;8.872;2023-05-10T14:40:46;22.60;91.10
32187;DHT22;18686;53.084;8.872;2023-05-10T14:43:15;23.00;89.40
32187;DHT22;18686;53.084;8.872;2023-05-10T14:45:43;23.40;86.90
32187;DHT22;18686;53.084;8.872;2023-05-10T14:48:12;23.50;83.60
32187;DHT22;18686;53.084;8.872;2023-05-10T14:50:43;23.60;81.20
32187;DHT22;18686;53.084;8.872;2023-05-10T14:53:11;23.60;79.20
32187;DHT22;18686;53.084;8.872;2023-05-10T14:55:40;23.80;78.30
32187;DHT22;18686;53.084;8.872;2023-05-10T14:58:09;23.80;78.90
32187;DHT22;18686;53.084;8.872;2023-05-10T15:00:37;23.70;76.80
32187;DHT22;18686;53.084;8.872;2023-05-10T15:03:06;23.60;76.40
32187;DHT22;18686;53.084;8.872;2023-05-10T15:05:35;23.50;76.60
32187;DHT22;18686;53.084;8.872;2023-05-10T15:08:04;23.10;78.40
32187;DHT22;18686;53.084;8.872;2023-05-10T15:10:32;22.70;79.40
32187;DHT22;18686;53.084;8.872;2023-05-10T15:13:03;22.40;79.20
32187;DHT22;18686;53.084;8.872;2023-05-10T15:15:31;22.20;81.30
32187;DHT22;18686;53.084;8.872;2023-05-10T15:18:00;22.10;82.10
32187;DHT22;18686;53.084;8.872;2023-05-10T15:20:28;22.10;81.70
32187;DHT22;18686;53.084;8.872;2023-05-10T15:22:56;22.00;83.30
32187;DHT22;18686;53.084;8.872;2023-05-10T15:25:24;21.80;83.00
32187;DHT22;18686;53.084;8.872;2023-05-10T15:27:52;21.60;84.30
32187;DHT22;18686;53.084;8.872;2023-05-10T15:30:22;21.40;82.50
32187;DHT22;18686;53.084;8.872;2023-05-10T15:32:50;21.20;83.20
32187;DHT22;18686;53.084;8.872;2023-05-10T15:35:19;21.00;85.20
32187;DHT22;18686;53.084;8.872;2023-05-10T15:37:47;20.80;87.80
32187;DHT22;18686;53.084;8.872;2023-05-10T15:40:16;20.70;88.40
32187;DHT22;18686;53.084;8.872;2023-05-10T15:42:44;20.60;90.30
32187;DHT22;18686;53.084;8.872;2023-05-10T15:45:13;20.60;90.60
32187;DHT22;18686;53.084;8.872;2023-05-10T15:47:44;20.50;91.70
32187;DHT22;18686;53.084;8.872;2023-05-10T15:50:12;20.50;91.90